Time;durP1;ratioP1;P1;durP2;ratioP2;P2;SDS_P1;SDS_P2;PMS_P1;PMS_P2;Temp;Humidity;BMP_temperature;BMP_pressure;BME280_temperature;BME280_humidity;BME280_pressure;Samples;Min_cycle;Max_cycle;Signal;HPM_P1;HPM_P2
2022/01/06 00:01:02;;;;;;;19.27;4.15;;;6.40;99.90;;;;;;5092039;28;20099;-80
2022/01/06 00:03:28;;;;;;;17.20;4.03;;;6.30;99.90;;;;;;5079474;28;20043;-79
2022/01/06 00:05:55;;;;;;;23.05;5.03;;;6.30;99.90;;;;;;5091361;28;20085;-79
2022/01/06 00:08:21;;;;;;;16.38;4.22;;;6.30;99.90;;;;;;5092090;28;20093;-79
2022/01/06 00:10:48;;;;;;;22.80;4.30;;;6.30;99.90;;;;;;5081290;28;20469;-79
2022/01/06 00:13:18;;;;;;;18.33;3.95;;;6.20;99.90;;;;;;5092377;28;20388;-80
2022/01/06 00:16:13;;;;;;;17.92;4.05;;;6.20;99.90;;;;;;5092259;28;20073;-79
2022/01/06 00:23:54;;;;;;;12.07;3.47;;;6.20;99.90;;;;;;5093086;28;20070;-79
2022/01/06 00:26:20;;;;;;;16.38;4.50;;;6.10;99.90;;;;;;5092738;28;20035;-79
2022/01/06 00:28:46;;;;;;;23.50;7.13;;;6.10;99.90;;;;;;5083531;28;20373;-76
2022/01/06 00:31:11;;;;;;;22.92;3.95;;;6.10;99.90;;;;;;5085258;28;20480;-79
2022/01/06 00:33:37;;;;;;;12.65;2.90;;;6.00;99.90;;;;;;5082289;28;20021;-80
2022/01/06 00:36:03;;;;;;;23.95;4.43;;;6.00;99.90;;;;;;5078282;28;20021;-80
2022/01/06 00:38:29;;;;;;;17.67;3.40;;;6.10;99.90;;;;;;5089016;28;20027;-79
2022/01/06 00:40:55;;;;;;;22.90;3.83;;;6.10;99.90;;;;;;5083182;28;20028;-79
2022/01/06 00:43:21;;;;;;;15.35;3.85;;;6.10;99.90;;;;;;5083379;28;20391;-80
2022/01/06 00:45:47;;;;;;;19.02;3.70;;;6.10;99.90;;;;;;5083714;28;20032;-80
2022/01/06 00:48:12;;;;;;;16.27;4.32;;;6.10;99.90;;;;;;5092645;28;20020;-79
2022/01/06 00:50:40;;;;;;;19.33;3.70;;;6.10;99.90;;;;;;5084320;28;20024;-79
2022/01/06 00:53:06;;;;;;;17.70;3.85;;;6.10;99.90;;;;;;5090946;28;20032;-79
2022/01/06 00:55:32;;;;;;;22.48;3.85;;;6.00;99.90;;;;;;5092643;28;20031;-79
2022/01/06 00:57:59;;;;;;;21.02;4.07;;;6.00;99.90;;;;;;5091491;28;20012;-79
2022/01/06 01:00:28;;;;;;;17.05;3.58;;;6.00;99.90;;;;;;5091314;28;20547;-78
2022/01/06 01:02:54;;;;;;;21.77;5.57;;;6.00;99.90;;;;;;5090259;28;20038;-78
2022/01/06 01:05:20;;;;;;;21.30;5.00;;;6.00;99.90;;;;;;5089070;28;20032;-78
2022/01/06 01:07:46;;;;;;;18.45;3.80;;;6.00;99.90;;;;;;5092575;28;20020;-79
2022/01/06 01:10:12;;;;;;;20.42;4.32;;;5.90;99.90;;;;;;5078843;28;20469;-79
2022/01/06 01:12:38;;;;;;;19.95;3.38;;;5.90;99.90;;;;;;5077236;28;20025;-78
2022/01/06 01:15:09;;;;;;;22.63;3.80;;;5.90;99.90;;;;;;5085962;28;20085;-79
2022/01/06 01:17:34;;;;;;;19.67;3.33;;;5.90;99.90;;;;;;5084960;28;20012;-79
2022/01/06 01:20:03;;;;;;;20.88;3.95;;;5.90;99.90;;;;;;5083773;28;20029;-79
2022/01/06 01:22:29;;;;;;;25.75;4.82;;;5.90;99.90;;;;;;5081995;28;20029;-79
2022/01/06 01:24:54;;;;;;;24.67;4.43;;;5.90;99.90;;;;;;5086087;28;20028;-79
2022/01/06 01:27:22;;;;;;;19.75;4.15;;;5.90;99.90;;;;;;5080278;28;20488;-78
2022/01/06 01:30:03;;;;;;;18.67;4.47;;;5.90;99.90;;;;;;5083305;28;20093;-79
2022/01/06 01:32:33;;;;;;;17.63;3.85;;;5.90;99.90;;;;;;5091458;28;20074;-79
2022/01/06 01:35:01;;;;;;;19.33;3.67;;;5.90;99.90;;;;;;5089922;28;20468;-80
2022/01/06 01:37:31;;;;;;;23.33;4.60;;;5.90;99.90;;;;;;5091717;28;20072;-79
2022/01/06 01:39:57;;;;;;;27.48;4.40;;;5.90;99.90;;;;;;5087033;28;20024;-79
2022/01/06 01:42:24;;;;;;;16.92;4.13;;;5.90;99.90;;;;;;5084951;28;20032;-79
2022/01/06 01:44:51;;;;;;;19.63;3.85;;;5.90;99.90;;;;;;5092085;28;20028;-76
2022/01/06 01:47:30;;;;;;;24.15;3.63;;;5.80;99.90;;;;;;5090946;28;20059;-80
2022/01/06 01:50:10;;;;;;;21.70;4.30;;;5.80;99.90;;;;;;5092117;28;20052;-80
2022/01/06 01:52:41;;;;;;;27.35;3.80;;;5.80;99.90;;;;;;5092073;28;20115;-79
2022/01/06 01:55:07;;;;;;;16.48;3.80;;;5.70;99.90;;;;;;5091078;28;20427;-79
2022/01/06 01:57:33;;;;;;;22.75;3.72;;;5.70;99.90;;;;;;5078435;28;20043;-79
2022/01/06 01:59:59;;;;;;;25.63;3.90;;;5.70;99.90;;;;;;5091772;28;20436;-79
2022/01/06 02:02:25;;;;;;;22.50;4.85;;;5.70;99.90;;;;;;5093142;28;20072;-79
2022/01/06 02:04:52;;;;;;;24.83;4.43;;;5.70;99.90;;;;;;5094724;28;20036;-79
2022/01/06 02:07:19;;;;;;;22.08;3.97;;;5.70;99.90;;;;;;5095999;28;20023;-78
2022/01/06 02:09:44;;;;;;;22.60;3.75;;;5.70;99.90;;;;;;5091434;28;20080;-79
2022/01/06 02:12:20;;;;;;;18.52;4.30;;;5.70;99.90;;;;;;5086994;28;20031;-79
2022/01/06 02:14:46;;;;;;;26.40;4.10;;;5.60;99.90;;;;;;5095610;28;20036;-78
2022/01/06 02:17:12;;;;;;;20.33;4.22;;;5.60;99.90;;;;;;5095787;28;20046;-79
2022/01/06 02:19:37;;;;;;;19.77;4.72;;;5.60;99.90;;;;;;5090583;28;20047;-79
2022/01/06 02:22:03;;;;;;;22.13;3.70;;;5.70;99.90;;;;;;5094354;28;20357;-80
2022/01/06 02:24:28;;;;;;;25.20;4.65;;;5.70;99.90;;;;;;5095473;28;20371;-79
2022/01/06 02:26:54;;;;;;;24.17;4.47;;;5.70;99.90;;;;;;5095091;28;20032;-79
2022/01/06 02:29:21;;;;;;;20.48;3.85;;;5.70;99.90;;;;;;5095409;28;20520;-79
2022/01/06 02:31:47;;;;;;;18.80;3.58;;;5.70;99.90;;;;;;5095570;28;20035;-79
2022/01/06 02:34:12;;;;;;;26.08;4.22;;;5.70;99.90;;;;;;5090503;28;20020;-77
2022/01/06 02:36:38;;;;;;;25.00;4.57;;;5.70;99.90;;;;;;5091581;28;20052;-79
2022/01/06 02:39:04;;;;;;;17.95;3.75;;;5.60;99.90;;;;;;5094617;28;20438;-79
2022/01/06 02:41:30;;;;;;;23.42;3.55;;;5.60;99.90;;;;;;5082785;28;20024;-79
2022/01/06 02:43:56;;;;;;;24.02;4.57;;;5.60;99.90;;;;;;5095265;28;20503;-78
2022/01/06 02:46:22;;;;;;;19.77;4.18;;;5.60;99.90;;;;;;5095106;28;20543;-78
2022/01/06 02:48:47;;;;;;;24.92;5.68;;;5.60;99.90;;;;;;5093820;28;20103;-77
2022/01/06 02:51:13;;;;;;;22.20;3.72;;;5.60;99.90;;;;;;5083452;28;20373;-79
2022/01/06 02:53:39;;;;;;;22.85;4.15;;;5.60;99.90;;;;;;5087978;28;20476;-79
2022/01/06 02:56:04;;;;;;;22.33;3.72;;;5.60;99.90;;;;;;5094627;28;20028;-79
2022/01/06 02:58:30;;;;;;;18.92;4.28;;;5.60;99.90;;;;;;5094813;28;20020;-79
2022/01/06 03:00:56;;;;;;;27.05;3.75;;;5.50;99.90;;;;;;5094584;28;20016;-80
2022/01/06 03:03:21;;;;;;;26.00;3.92;;;5.50;99.90;;;;;;5093791;28;20077;-78
2022/01/06 03:05:47;;;;;;;25.73;3.30;;;5.50;99.90;;;;;;5092807;28;20474;-80
2022/01/06 03:08:13;;;;;;;28.10;4.15;;;5.50;99.90;;;;;;5094964;28;20024;-80
2022/01/06 03:10:43;;;;;;;19.75;3.35;;;5.50;99.90;;;;;;5087435;28;20027;-79
2022/01/06 03:13:08;;;;;;;23.65;4.10;;;5.50;99.90;;;;;;5082365;28;20029;-79
2022/01/06 03:15:34;;;;;;;15.80;3.47;;;5.50;99.90;;;;;;5083516;28;20028;-80
2022/01/06 03:18:00;;;;;;;14.10;3.75;;;5.40;99.90;;;;;;5082651;28;20108;-79
2022/01/06 03:20:29;;;;;;;25.65;3.80;;;5.40;99.90;;;;;;5081780;28;20499;-80
2022/01/06 03:22:56;;;;;;;19.90;4.47;;;5.40;99.90;;;;;;5084823;28;20020;-79
2022/01/06 03:25:22;;;;;;;24.75;3.95;;;5.40;99.90;;;;;;5083414;28;20029;-78
2022/01/06 03:27:48;;;;;;;21.55;3.60;;;5.40;99.90;;;;;;5081675;28;20021;-79
2022/01/06 03:30:18;;;;;;;22.80;3.58;;;5.40;99.90;;;;;;5083686;28;20465;-78
2022/01/06 03:32:44;;;;;;;19.38;3.47;;;5.40;99.90;;;;;;5082011;28;20017;-79
2022/01/06 03:35:12;;;;;;;18.55;4.45;;;5.40;99.90;;;;;;5084050;28;20047;-78
2022/01/06 03:37:39;;;;;;;20.80;3.90;;;5.40;99.90;;;;;;5077908;28;20441;-79
2022/01/06 03:40:05;;;;;;;27.42;4.07;;;5.40;99.90;;;;;;5084317;28;20024;-78
2022/01/06 03:42:35;;;;;;;31.25;4.50;;;5.40;99.90;;;;;;5082851;28;20020;-79
2022/01/06 03:45:07;;;;;;;22.60;3.45;;;5.40;99.90;;;;;;5082108;28;20070;-79
2022/01/06 03:47:33;;;;;;;24.77;4.03;;;5.40;99.90;;;;;;5082823;28;20059;-79
2022/01/06 03:49:58;;;;;;;18.30;2.95;;;5.40;99.90;;;;;;5082791;28;20362;-79
2022/01/06 03:52:24;;;;;;;27.10;3.90;;;5.40;99.90;;;;;;5082475;28;20149;-78
2022/01/06 03:54:51;;;;;;;21.27;3.55;;;5.40;99.90;;;;;;5081709;28;20027;-78
2022/01/06 03:57:17;;;;;;;22.33;3.42;;;5.30;99.90;;;;;;5081303;28;20031;-79
2022/01/06 03:59:42;;;;;;;17.83;4.50;;;5.40;99.90;;;;;;5083926;28;20020;-79
2022/01/06 04:02:08;;;;;;;26.45;4.38;;;5.30;99.90;;;;;;5082187;28;20487;-79
2022/01/06 04:04:34;;;;;;;18.15;3.63;;;5.30;99.90;;;;;;5081283;28;20028;-78
2022/01/06 04:07:00;;;;;;;14.65;3.28;;;5.40;99.90;;;;;;5081695;28;20059;-79
2022/01/06 04:09:25;;;;;;;19.00;4.15;;;5.40;99.90;;;;;;5081705;28;20146;-79
2022/01/06 04:11:51;;;;;;;28.42;3.90;;;5.40;99.90;;;;;;5083029;28;20072;-78
2022/01/06 04:14:17;;;;;;;19.15;3.53;;;5.40;99.90;;;;;;5083125;28;20385;-78
2022/01/06 04:16:42;;;;;;;24.80;3.63;;;5.40;99.90;;;;;;5083024;28;20121;-78
2022/01/06 04:19:09;;;;;;;23.35;4.20;;;5.40;99.90;;;;;;5081872;28;20099;-77
2022/01/06 04:21:35;;;;;;;13.95;3.63;;;5.40;99.90;;;;;;5081713;28;20618;-78
2022/01/06 04:24:01;;;;;;;26.67;4.35;;;5.40;99.90;;;;;;5080511;28;20099;-77
2022/01/06 04:26:26;;;;;;;27.85;3.90;;;5.40;99.90;;;;;;5082417;28;20051;-80
2022/01/06 04:28:52;;;;;;;23.63;4.15;;;5.40;99.90;;;;;;5082768;28;20472;-77
2022/01/06 04:31:18;;;;;;;18.38;3.88;;;5.40;99.90;;;;;;5082953;28;20029;-78
2022/01/06 04:33:44;;;;;;;23.52;4.32;;;5.40;99.90;;;;;;5081125;28;20590;-77
2022/01/06 04:36:10;;;;;;;20.83;4.45;;;5.40;99.90;;;;;;5081506;28;20488;-77
2022/01/06 04:38:36;;;;;;;21.27;4.55;;;5.30;99.90;;;;;;5081814;28;20021;-77
2022/01/06 04:41:03;;;;;;;24.23;5.20;;;5.30;99.90;;;;;;5081272;28;20032;-77
2022/01/06 04:43:29;;;;;;;21.17;5.20;;;5.30;99.90;;;;;;5081552;28;20024;-77
2022/01/06 04:45:55;;;;;;;23.65;5.10;;;5.30;99.90;;;;;;5082148;28;20116;-78
2022/01/06 04:48:20;;;;;;;16.40;4.30;;;5.30;99.90;;;;;;5079887;28;20111;-77
2022/01/06 04:50:46;;;;;;;20.65;5.07;;;5.30;99.90;;;;;;5074439;28;20032;-77
2022/01/06 04:53:12;;;;;;;23.27;5.63;;;5.30;99.90;;;;;;5072376;28;20040;-77
2022/01/06 04:55:38;;;;;;;17.00;4.75;;;5.20;99.90;;;;;;5076287;28;20024;-76
2022/01/06 04:58:03;;;;;;;21.50;5.22;;;5.20;99.90;;;;;;5092192;28;20035;-77
2022/01/06 05:00:29;;;;;;;18.92;4.97;;;5.20;99.90;;;;;;5090791;28;20468;-76
2022/01/06 05:02:54;;;;;;;17.75;5.60;;;5.20;99.90;;;;;;5092011;28;20024;-79
2022/01/06 05:05:20;;;;;;;23.90;6.20;;;5.20;99.90;;;;;;5091045;28;20040;-79
2022/01/06 05:07:46;;;;;;;25.00;6.78;;;5.20;99.90;;;;;;5092207;28;20077;-79
2022/01/06 05:10:12;;;;;;;30.40;7.13;;;5.20;99.90;;;;;;5091336;28;20086;-80
2022/01/06 05:12:45;;;;;;;24.63;6.80;;;5.20;99.90;;;;;;5086665;28;20056;-79
2022/01/06 05:15:13;;;;;;;30.63;8.02;;;5.20;99.90;;;;;;5072002;28;20032;-79
2022/01/06 05:17:39;;;;;;;28.92;7.57;;;5.20;99.90;;;;;;5071795;28;20461;-80
2022/01/06 05:20:06;;;;;;;29.85;8.18;;;5.20;99.90;;;;;;5071714;28;20032;-79
2022/01/06 05:22:32;;;;;;;22.35;7.43;;;5.20;99.90;;;;;;5072184;28;20535;-79
2022/01/06 05:24:58;;;;;;;25.83;8.77;;;5.20;99.90;;;;;;5071843;28;20597;-79
2022/01/06 05:27:24;;;;;;;31.70;9.40;;;5.20;99.90;;;;;;5071917;28;20107;-77
2022/01/06 05:29:51;;;;;;;31.73;9.65;;;5.20;99.90;;;;;;5071865;28;20100;-79
2022/01/06 05:32:17;;;;;;;33.72;8.63;;;5.20;99.90;;;;;;5088820;28;20396;-78
2022/01/06 05:34:43;;;;;;;26.38;9.45;;;5.20;99.90;;;;;;5091634;28;20107;-79
2022/01/06 05:37:08;;;;;;;27.98;9.77;;;5.20;99.90;;;;;;5076830;28;20071;-80
2022/01/06 05:39:34;;;;;;;30.33;8.88;;;5.20;99.90;;;;;;5076198;28;20439;-79
2022/01/06 05:42:00;;;;;;;34.22;9.48;;;5.10;99.90;;;;;;5082701;28;20099;-79
2022/01/06 05:44:26;;;;;;;30.75;9.80;;;5.10;99.90;;;;;;5075734;28;20055;-79
2022/01/06 05:46:52;;;;;;;29.77;10.30;;;5.20;99.90;;;;;;5075802;28;20021;-77
2022/01/06 05:49:17;;;;;;;30.70;10.23;;;5.10;99.90;;;;;;5092661;28;20036;-76
2022/01/06 05:51:43;;;;;;;29.73;9.70;;;5.10;99.90;;;;;;5094705;28;20091;-76
2022/01/06 05:54:09;;;;;;;28.00;9.68;;;5.20;99.90;;;;;;5095953;28;20027;-74
2022/01/06 05:56:35;;;;;;;26.05;9.48;;;5.10;99.90;;;;;;5095780;28;20059;-76
2022/01/06 05:59:00;;;;;;;29.08;10.43;;;5.10;99.90;;;;;;5095663;28;20024;-76
2022/01/06 06:01:26;;;;;;;30.48;10.65;;;5.10;99.90;;;;;;5095772;28;20078;-79
2022/01/06 06:03:54;;;;;;;26.63;10.55;;;5.10;99.90;;;;;;5093872;28;20055;-76
2022/01/06 06:06:20;;;;;;;34.70;10.73;;;5.10;99.90;;;;;;5086273;28;20055;-77
2022/01/06 06:08:45;;;;;;;36.42;12.60;;;5.10;99.90;;;;;;5075440;28;20017;-76
2022/01/06 06:11:11;;;;;;;28.98;10.32;;;5.00;99.90;;;;;;5075211;28;20028;-76
2022/01/06 06:13:37;;;;;;;30.80;10.95;;;5.00;99.90;;;;;;5075345;28;20032;-76
2022/01/06 06:16:03;;;;;;;31.52;11.35;;;5.00;99.90;;;;;;5075119;28;20037;-76
2022/01/06 06:18:29;;;;;;;27.65;10.38;;;5.00;99.90;;;;;;5075122;28;20033;-76
2022/01/06 06:20:54;;;;;;;34.92;12.18;;;5.00;99.90;;;;;;5088980;28;20032;-77
2022/01/06 06:23:20;;;;;;;25.88;10.57;;;5.00;99.90;;;;;;5093916;28;20468;-76
2022/01/06 06:25:46;;;;;;;24.25;10.85;;;5.00;99.90;;;;;;5095134;28;20033;-77
2022/01/06 06:28:11;;;;;;;27.33;11.00;;;5.00;99.90;;;;;;5095299;28;20099;-76
2022/01/06 06:30:37;;;;;;;33.65;11.80;;;4.90;99.90;;;;;;5094945;28;20472;-76
2022/01/06 06:33:03;;;;;;;26.90;12.38;;;4.90;99.90;;;;;;5094910;28;20030;-76
2022/01/06 06:35:30;;;;;;;30.73;12.77;;;4.90;99.90;;;;;;5094999;28;20024;-78
2022/01/06 06:37:56;;;;;;;35.03;12.55;;;4.90;99.90;;;;;;5075079;28;20031;-76
2022/01/06 06:40:23;;;;;;;30.00;12.68;;;4.90;99.90;;;;;;5075317;28;20036;-76
2022/01/06 06:42:50;;;;;;;35.90;12.05;;;4.80;99.90;;;;;;5074878;28;20038;-76
2022/01/06 06:45:17;;;;;;;41.10;13.60;;;4.80;99.90;;;;;;5074377;28;20530;-76
2022/01/06 06:47:42;;;;;;;33.55;12.98;;;4.80;99.90;;;;;;5074453;28;20029;-76
2022/01/06 06:50:08;;;;;;;34.70;12.88;;;4.80;99.90;;;;;;5072754;28;20469;-77
2022/01/06 06:52:34;;;;;;;32.67;12.50;;;4.80;99.90;;;;;;5093108;28;20020;-77
2022/01/06 06:55:00;;;;;;;31.60;12.48;;;4.70;99.90;;;;;;5094695;28;20032;-78
2022/01/06 06:57:26;;;;;;;37.00;11.60;;;4.80;99.90;;;;;;5093288;28;20028;-77
2022/01/06 06:59:51;;;;;;;37.55;12.65;;;4.70;99.90;;;;;;5075681;28;20197;-76
2022/01/06 07:02:17;;;;;;;37.55;13.68;;;4.70;99.90;;;;;;5082097;28;20384;-77
2022/01/06 07:04:43;;;;;;;36.25;13.25;;;4.70;99.90;;;;;;5074091;28;20061;-77
2022/01/06 07:07:08;;;;;;;31.88;13.38;;;4.70;99.90;;;;;;5088281;28;20036;-77
2022/01/06 07:09:34;;;;;;;35.53;13.55;;;4.70;99.90;;;;;;5094473;28;20016;-79
2022/01/06 07:11:59;;;;;;;36.90;13.93;;;4.70;99.90;;;;;;5093551;28;20067;-79
2022/01/06 07:14:25;;;;;;;34.17;12.80;;;4.60;99.90;;;;;;5094156;28;20357;-79
2022/01/06 07:16:51;;;;;;;37.55;14.35;;;4.70;99.90;;;;;;5093635;28;20031;-78
2022/01/06 07:19:16;;;;;;;31.58;11.82;;;4.60;99.90;;;;;;5094169;28;20056;-81
2022/01/06 07:21:42;;;;;;;29.00;12.00;;;4.60;99.90;;;;;;5093837;28;20423;-79
2022/01/06 07:24:08;;;;;;;35.47;12.95;;;4.60;99.90;;;;;;5092941;28;20044;-79
2022/01/06 07:26:33;;;;;;;32.75;12.65;;;4.60;99.90;;;;;;5093699;28;20050;-78
2022/01/06 07:28:59;;;;;;;34.60;13.90;;;4.50;99.90;;;;;;5088985;28;22213;-79
2022/01/06 07:31:25;;;;;;;36.13;14.25;;;4.60;99.90;;;;;;5083017;28;20032;-79
2022/01/06 07:33:50;;;;;;;33.03;13.95;;;4.50;99.90;;;;;;5084152;28;20028;-78
2022/01/06 07:36:16;;;;;;;35.70;12.80;;;4.50;99.90;;;;;;5086071;28;20025;-77
2022/01/06 07:38:43;;;;;;;29.92;12.35;;;4.50;99.90;;;;;;5083159;28;20040;-78
2022/01/06 07:41:08;;;;;;;42.33;16.17;;;4.50;99.90;;;;;;5075097;28;20023;-78
2022/01/06 07:43:34;;;;;;;37.80;15.00;;;4.50;99.90;;;;;;5079325;28;20035;-79
2022/01/06 07:45:59;;;;;;;37.25;14.43;;;4.50;99.90;;;;;;5083730;28;20041;-78
2022/01/06 07:48:30;;;;;;;41.25;14.85;;;4.50;99.90;;;;;;5079083;28;20469;-79
2022/01/06 07:50:55;;;;;;;43.15;13.18;;;4.50;99.90;;;;;;5087009;28;20069;-79
2022/01/06 07:53:21;;;;;;;39.03;14.60;;;4.50;99.90;;;;;;5080613;28;20020;-79
2022/01/06 07:55:46;;;;;;;31.00;12.77;;;4.40;99.90;;;;;;5079511;28;20037;-79
2022/01/06 07:58:12;;;;;;;38.55;13.63;;;4.40;99.90;;;;;;5077623;28;20029;-79
2022/01/06 08:00:38;;;;;;;39.67;16.45;;;4.40;99.90;;;;;;5078889;28;21830;-78
2022/01/06 08:03:03;;;;;;;39.33;13.43;;;4.40;99.90;;;;;;5079848;28;20024;-78
2022/01/06 08:05:29;;;;;;;43.08;14.10;;;4.40;99.90;;;;;;5082023;28;20039;-76
2022/01/06 08:07:55;;;;;;;35.85;13.88;;;4.40;99.90;;;;;;5082329;28;20462;-78
2022/01/06 08:10:22;;;;;;;43.92;14.30;;;4.40;99.90;;;;;;5079701;28;20048;-78
2022/01/06 08:12:48;;;;;;;35.72;13.77;;;4.40;99.90;;;;;;5078849;28;20021;-79
2022/01/06 08:15:14;;;;;;;44.95;14.10;;;4.40;99.90;;;;;;5084956;28;20051;-78
2022/01/06 08:17:40;;;;;;;35.45;12.30;;;4.50;99.90;;;;;;5079954;28;20020;-78
2022/01/06 08:20:08;;;;;;;43.00;14.57;;;4.40;99.90;;;;;;5086481;28;20032;-77
2022/01/06 08:22:35;;;;;;;37.40;14.55;;;4.40;99.90;;;;;;5082653;28;20417;-76
2022/01/06 08:25:05;;;;;;;46.25;15.00;;;4.50;99.90;;;;;;5083523;28;20024;-77
2022/01/06 08:27:31;;;;;;;31.48;13.50;;;4.40;99.90;;;;;;5088587;28;20533;-78
2022/01/06 08:29:57;;;;;;;35.08;12.60;;;4.40;99.90;;;;;;5084722;28;20044;-77
2022/01/06 08:32:23;;;;;;;40.60;15.40;;;4.40;99.90;;;;;;5084754;28;20063;-78
2022/01/06 08:34:48;;;;;;;40.83;16.35;;;4.40;99.90;;;;;;5076778;28;20493;-77
2022/01/06 08:37:14;;;;;;;32.72;14.05;;;4.50;99.90;;;;;;5076696;28;20478;-78
2022/01/06 08:39:40;;;;;;;31.55;14.23;;;4.50;99.90;;;;;;5077689;28;20032;-78
2022/01/06 08:42:06;;;;;;;33.47;14.32;;;4.50;99.90;;;;;;5083021;28;20111;-77
2022/01/06 08:44:32;;;;;;;31.83;14.18;;;4.50;99.90;;;;;;5078347;28;20397;-78
2022/01/06 08:47:00;;;;;;;37.28;14.85;;;4.50;99.90;;;;;;5081123;28;20036;-78
2022/01/06 08:49:27;;;;;;;35.88;16.13;;;4.50;99.90;;;;;;5078187;28;20518;-77
2022/01/06 08:51:52;;;;;;;34.53;14.95;;;4.60;99.90;;;;;;5081782;28;20044;-77
2022/01/06 08:54:18;;;;;;;48.25;16.33;;;4.60;99.90;;;;;;5084156;28;20081;-77
2022/01/06 08:56:44;;;;;;;34.50;15.02;;;4.50;99.90;;;;;;5090545;28;20085;-77
2022/01/06 08:59:10;;;;;;;42.38;16.33;;;4.60;99.90;;;;;;5087309;28;20032;-78
2022/01/06 09:01:36;;;;;;;37.28;17.15;;;4.60;99.90;;;;;;5086240;28;20115;-77
2022/01/06 09:04:02;;;;;;;41.70;17.55;;;4.60;99.90;;;;;;5076431;28;20021;-77
2022/01/06 09:06:28;;;;;;;39.83;16.63;;;4.60;99.90;;;;;;5080391;28;20152;-78
2022/01/06 09:08:53;;;;;;;42.67;17.42;;;4.60;99.90;;;;;;5080516;28;20021;-78
2022/01/06 09:11:19;;;;;;;46.40;17.92;;;4.60;99.90;;;;;;5079290;28;20025;-77
2022/01/06 09:13:45;;;;;;;45.75;17.63;;;4.60;99.90;;;;;;5079718;28;20021;-77
2022/01/06 09:16:13;;;;;;;41.28;17.52;;;4.70;99.90;;;;;;5076874;28;20441;-76
2022/01/06 09:18:40;;;;;;;40.58;17.15;;;4.70;99.90;;;;;;5079770;28;20124;-78
2022/01/06 09:21:07;;;;;;;41.15;17.58;;;4.70;99.90;;;;;;5077992;28;20033;-76
2022/01/06 09:23:33;;;;;;;37.38;17.42;;;4.80;99.90;;;;;;5080417;28;20032;-78
2022/01/06 09:25:59;;;;;;;39.63;16.80;;;4.80;99.90;;;;;;5081656;28;20043;-76
2022/01/06 09:28:26;;;;;;;44.83;17.67;;;4.80;99.90;;;;;;5087546;28;20031;-77
2022/01/06 09:30:52;;;;;;;42.97;18.10;;;4.80;99.90;;;;;;5080070;28;20033;-77
2022/01/06 09:33:19;;;;;;;44.60;20.60;;;4.70;99.90;;;;;;5082132;28;20031;-78
2022/01/06 09:35:46;;;;;;;42.85;17.60;;;4.80;99.90;;;;;;5080746;28;20020;-78
2022/01/06 09:38:13;;;;;;;39.58;18.08;;;4.80;99.90;;;;;;5072481;28;20024;-77
2022/01/06 09:40:43;;;;;;;44.95;19.80;;;4.90;99.90;;;;;;5081420;28;20063;-75
2022/01/06 09:43:12;;;;;;;47.60;20.48;;;4.90;99.90;;;;;;5076049;28;20029;-75
2022/01/06 09:45:38;;;;;;;39.95;19.52;;;4.90;99.90;;;;;;5072667;28;20029;-76
2022/01/06 09:48:05;;;;;;;47.13;19.77;;;5.00;99.90;;;;;;5087750;28;20465;-77
2022/01/06 09:50:31;;;;;;;43.28;18.23;;;5.10;99.90;;;;;;5079424;28;20039;-77
2022/01/06 09:52:57;;;;;;;47.40;19.20;;;5.10;99.90;;;;;;5082802;28;20020;-76
2022/01/06 09:55:23;;;;;;;42.35;18.70;;;5.10;99.90;;;;;;5088979;28;20028;-76
2022/01/06 09:57:56;;;;;;;38.40;17.60;;;5.10;99.90;;;;;;5085324;28;20031;-75
2022/01/06 10:00:22;;;;;;;42.92;17.88;;;5.10;99.90;;;;;;5082506;28;20025;-77
2022/01/06 10:02:53;;;;;;;36.42;16.33;;;5.10;99.90;;;;;;5079239;28;20030;-76
2022/01/06 10:05:19;;;;;;;45.75;17.27;;;5.00;99.90;;;;;;5070142;28;20504;-75
2022/01/06 10:07:45;;;;;;;53.92;18.60;;;5.10;99.90;;;;;;5083016;28;20055;-77
2022/01/06 10:10:12;;;;;;;48.65;18.77;;;5.10;99.90;;;;;;5090624;28;20499;-77
2022/01/06 10:12:40;;;;;;;39.03;16.17;;;5.20;99.90;;;;;;5089804;28;20022;-77
2022/01/06 10:15:20;;;;;;;38.80;17.58;;;5.20;99.90;;;;;;5090560;28;20028;-77
2022/01/06 10:17:46;;;;;;;44.92;18.20;;;5.20;99.90;;;;;;5081882;28;20032;-76
2022/01/06 10:20:14;;;;;;;45.83;17.67;;;5.30;99.90;;;;;;5089255;28;20031;-76
2022/01/06 10:22:58;;;;;;;51.15;18.02;;;5.30;99.90;;;;;;5075321;28;20035;-79
2022/01/06 10:25:31;;;;;;;51.35;18.67;;;5.30;99.90;;;;;;5091425;28;20024;-76
2022/01/06 10:27:56;;;;;;;;;;;5.30;99.90;;;;;;5088641;28;20562;-74
2022/01/06 10:30:29;;;;;;;45.35;20.33;;;5.30;99.90;;;;;;5080988;28;19912;-76
2022/01/06 10:32:58;;;;;;;44.47;17.83;;;5.30;99.90;;;;;;5077289;28;20035;-76
2022/01/06 10:35:24;;;;;;;38.22;19.05;;;5.30;99.90;;;;;;5086877;28;20028;-73
2022/01/06 10:37:50;;;;;;;43.50;17.17;;;5.30;99.90;;;;;;5094596;28;20035;-75
2022/01/06 10:40:22;;;;;;;44.88;17.48;;;5.30;99.90;;;;;;5094879;28;20031;-76
2022/01/06 10:42:50;;;;;;;47.90;18.17;;;5.30;99.90;;;;;;5092687;28;20104;-75
2022/01/06 10:45:22;;;;;;;39.35;16.90;;;5.30;99.90;;;;;;5094142;28;20051;-76
2022/01/06 10:47:54;;;;;;;34.05;14.80;;;5.40;99.90;;;;;;5075523;28;20036;-76
2022/01/06 10:50:35;;;;;;;38.10;15.27;;;5.40;99.90;;;;;;5083091;28;20024;-76
2022/01/06 10:53:04;;;;;;;36.00;15.15;;;5.50;99.90;;;;;;5087229;28;20165;-75
2022/01/06 10:55:35;;;;;;;41.30;16.40;;;5.50;99.90;;;;;;5094728;28;20108;-75
2022/01/06 10:58:03;;;;;;;33.25;14.55;;;5.50;99.90;;;;;;5095698;28;20038;-76
2022/01/06 11:00:30;;;;;;;31.38;13.18;;;5.50;99.90;;;;;;5093350;28;20488;-70
2022/01/06 11:03:21;;;;;;;36.10;13.95;;;5.50;99.90;;;;;;5094420;28;20027;-76
2022/01/06 11:05:52;;;;;;;33.80;13.10;;;5.40;99.90;;;;;;5078381;28;20566;-76
2022/01/06 11:08:27;;;;;;;37.78;13.18;;;5.40;99.90;;;;;;5076544;28;20495;-76
2022/01/06 11:13:41;;;;;;;30.00;12.63;;;5.50;99.90;;;;;;5083201;28;20395;-75
2022/01/06 11:16:14;;;;;;;26.17;11.00;;;5.40;99.90;;;;;;5079072;28;20036;-76
2022/01/06 11:18:43;;;;;;;29.95;11.63;;;5.40;99.90;;;;;;5080850;28;20030;-76
2022/01/06 11:21:14;;;;;;;31.92;13.25;;;5.50;99.90;;;;;;5084834;28;20028;-76
2022/01/06 11:23:40;;;;;;;34.33;12.38;;;5.40;99.90;;;;;;5085157;28;20016;-76
2022/01/06 11:26:11;;;;;;;50.53;13.25;;;5.50;99.90;;;;;;5067045;28;20067;-76
2022/01/06 11:28:37;;;;;;;28.88;11.13;;;5.50;99.90;;;;;;5079987;28;20541;-75
2022/01/06 11:31:21;;;;;;;32.30;12.10;;;5.50;99.90;;;;;;5084224;28;20069;-75
2022/01/06 11:33:48;;;;;;;30.13;12.85;;;5.60;99.90;;;;;;5077045;28;20078;-75
2022/01/06 11:36:24;;;;;;;34.85;13.30;;;5.70;99.90;;;;;;5080176;28;20029;-73
2022/01/06 11:38:51;;;;;;;33.95;12.15;;;5.80;99.90;;;;;;5081148;28;20500;-76
2022/01/06 11:41:17;;;;;;;36.33;14.38;;;5.80;99.90;;;;;;5080904;28;20013;-74
2022/01/06 11:43:46;;;;;;;36.45;10.98;;;5.90;99.90;;;;;;5084993;28;20021;-75
2022/01/06 11:46:13;;;;;;;28.73;11.25;;;5.90;99.90;;;;;;5080799;28;20160;-74
2022/01/06 11:48:58;;;;;;;25.90;10.50;;;5.90;99.90;;;;;;5083423;28;20480;-74
2022/01/06 11:51:33;;;;;;;27.85;10.48;;;6.00;99.90;;;;;;5078687;28;20017;-75
2022/01/06 11:54:11;;;;;;;32.00;13.07;;;6.10;99.90;;;;;;5083169;28;20065;-74
2022/01/06 11:56:52;;;;;;;25.50;9.95;;;6.20;99.90;;;;;;5077554;28;20028;-73
2022/01/06 11:59:32;;;;;;;26.75;9.38;;;6.20;99.90;;;;;;5087139;28;20028;-75
2022/01/06 12:01:59;;;;;;;30.95;8.95;;;6.20;99.90;;;;;;5084533;28;20029;-75
2022/01/06 12:04:25;;;;;;;28.90;8.85;;;6.20;99.90;;;;;;5084141;28;20028;-76
2022/01/06 12:07:08;;;;;;;24.92;8.77;;;6.20;99.90;;;;;;5078386;28;20132;-75
2022/01/06 12:09:34;;;;;;;29.13;8.30;;;6.20;99.90;;;;;;5083911;28;20020;-75
2022/01/06 12:12:02;;;;;;;21.88;8.63;;;6.10;99.90;;;;;;5087305;28;20024;-75
2022/01/06 12:14:29;;;;;;;24.10;6.80;;;6.20;99.90;;;;;;5081382;28;20052;-75
2022/01/06 12:17:06;;;;;;;23.48;7.63;;;6.20;99.90;;;;;;5086323;28;20019;-75
2022/01/06 12:19:32;;;;;;;26.52;6.68;;;6.20;99.90;;;;;;5081039;28;20112;-76
2022/01/06 12:21:58;;;;;;;27.65;7.55;;;6.30;99.90;;;;;;5082857;28;20108;-76
2022/01/06 12:24:24;;;;;;;32.30;8.32;;;6.40;99.90;;;;;;5083990;28;20050;-76
2022/01/06 12:26:51;;;;;;;24.30;7.97;;;6.40;99.90;;;;;;5079506;28;20063;-76
2022/01/06 12:29:19;;;;;;;27.25;8.05;;;6.30;99.90;;;;;;5074835;28;20028;-76
2022/01/06 12:31:46;;;;;;;22.55;7.60;;;6.20;99.90;;;;;;5079515;28;20028;-76
2022/01/06 12:34:14;;;;;;;26.55;10.60;;;6.20;99.90;;;;;;5082259;28;20095;-76
2022/01/06 12:36:43;;;;;;;22.70;7.40;;;6.30;99.90;;;;;;5081850;28;20099;-76
2022/01/06 12:39:17;;;;;;;23.15;6.20;;;6.30;99.90;;;;;;5081035;28;20473;-76
2022/01/06 12:41:45;;;;;;;25.00;6.47;;;6.40;99.90;;;;;;5081169;28;20112;-75
2022/01/06 12:44:16;;;;;;;19.23;6.57;;;6.30;99.90;;;;;;5081489;28;20036;-75
2022/01/06 12:46:42;;;;;;;23.63;7.20;;;6.40;99.90;;;;;;5084452;28;20032;-75
2022/01/06 12:49:09;;;;;;;27.83;6.50;;;6.40;99.90;;;;;;5075581;28;20043;-75
2022/01/06 12:51:41;;;;;;;20.42;4.95;;;6.50;99.90;;;;;;5082495;28;20064;-75